createdAt,value
2017-08-28T00:00:09.678Z,28.40
2017-08-28T00:02:41.351Z,28.70
2017-08-28T00:05:12.698Z,29.60
2017-08-28T00:07:44.016Z,30.47
2017-08-28T00:10:15.659Z,31.20
2017-08-28T00:12:47.033Z,30.50
2017-08-28T00:15:18.382Z,30.70
2017-08-28T00:17:50.051Z,32.00
2017-08-28T00:20:21.468Z,34.40
2017-08-28T00:25:35.510Z,34.53
2017-08-28T00:28:07.574Z,36.57
2017-08-28T00:30:39.378Z,37.17
2017-08-28T00:33:10.997Z,37.60
2017-08-28T00:35:42.577Z,38.70
2017-08-28T00:38:13.974Z,39.20
2017-08-28T00:40:45.365Z,38.97
2017-08-28T00:43:17.018Z,39.47
2017-08-28T00:45:48.387Z,37.53
2017-08-28T00:48:19.762Z,40.93
2017-08-28T00:50:51.407Z,36.53
2017-08-28T00:53:22.774Z,38.13
2017-08-28T00:55:54.397Z,36.80
2017-08-28T00:58:25.728Z,36.70
2017-08-28T01:00:57.124Z,37.40
2017-08-28T01:03:28.793Z,34.80
2017-08-28T01:06:00.320Z,34.33
2017-08-28T01:08:31.645Z,34.30
2017-08-28T01:11:06.021Z,34.27
2017-08-28T01:13:37.373Z,35.13
2017-08-28T01:16:08.976Z,33.63
2017-08-28T01:18:40.324Z,34.20
2017-08-28T01:21:12.031Z,34.57
2017-08-28T01:23:43.354Z,35.00
2017-08-28T01:26:14.680Z,35.87
2017-08-28T01:28:46.313Z,36.97
2017-08-28T01:31:17.676Z,36.37
2017-08-28T01:36:44.616Z,33.30
2017-08-28T01:39:15.959Z,33.13
2017-08-28T01:41:47.564Z,32.40
2017-08-28T01:44:18.872Z,32.00
2017-08-28T01:46:50.335Z,32.67
2017-08-28T01:49:21.658Z,32.37
2017-08-28T01:51:53.313Z,32.10
2017-08-28T01:54:24.644Z,31.00
2017-08-28T01:56:56.660Z,30.50
2017-08-28T01:59:28.510Z,32.07
2017-08-28T02:01:59.934Z,31.77
2017-08-28T02:04:31.265Z,29.83
2017-08-28T02:07:04.131Z,31.30
2017-08-28T02:09:35.450Z,30.80
2017-08-28T02:12:07.109Z,30.70
2017-08-28T02:14:38.730Z,27.90
2017-08-28T02:17:10.047Z,29.13
2017-08-28T02:19:41.445Z,28.17
2017-08-28T02:22:13.231Z,26.97
2017-08-28T02:24:44.615Z,27.83
2017-08-28T02:27:15.937Z,29.30
2017-08-28T02:29:47.581Z,29.20
2017-08-28T02:32:18.920Z,30.90
2017-08-28T02:34:50.240Z,28.57
2017-08-28T02:37:22.316Z,29.30
2017-08-28T02:39:53.664Z,29.40
2017-08-28T02:42:24.980Z,30.20
2017-08-28T02:44:56.636Z,28.60
2017-08-28T02:47:27.974Z,29.50
2017-08-28T02:49:59.392Z,28.77
2017-08-28T02:52:30.993Z,28.53
2017-08-28T02:55:03.964Z,29.37
2017-08-28T02:57:35.598Z,28.97
2017-08-28T03:00:07.292Z,28.90
2017-08-28T03:02:38.596Z,29.00
2017-08-28T03:05:10.213Z,28.27
2017-08-28T03:07:41.812Z,28.57
2017-08-28T03:10:13.114Z,29.00
2017-08-28T03:12:44.770Z,28.10
2017-08-28T03:15:16.074Z,30.07
2017-08-28T03:17:47.746Z,30.60
2017-08-28T03:20:19.043Z,26.33
2017-08-28T03:22:50.373Z,27.40
2017-08-28T03:25:21.975Z,27.20
2017-08-28T03:27:53.314Z,26.90
2017-08-28T03:30:24.654Z,25.60
2017-08-28T03:32:56.262Z,24.27
2017-08-28T03:35:27.628Z,23.07
2017-08-28T03:37:59.620Z,24.30
2017-08-28T03:40:30.910Z,24.10
2017-08-28T03:43:03.124Z,22.97
2017-08-28T03:45:34.807Z,22.87
2017-08-28T03:48:07.220Z,23.33
2017-08-28T03:50:38.604Z,22.30
2017-08-28T03:53:10.301Z,21.80
2017-08-28T03:55:41.703Z,23.10
2017-08-28T03:58:13.399Z,21.00
2017-08-28T04:00:45.113Z,22.47
2017-08-28T04:03:16.525Z,21.80
2017-08-28T04:05:48.167Z,20.27
2017-08-28T04:08:20.022Z,19.27
2017-08-28T04:10:51.317Z,18.37
2017-08-28T04:13:22.900Z,17.30
2017-08-28T04:15:54.202Z,16.60
2017-08-28T04:18:25.512Z,15.83
2017-08-28T04:20:56.896Z,14.27
2017-08-28T04:23:28.535Z,13.50
2017-08-28T04:25:59.860Z,14.10
2017-08-28T04:28:31.566Z,13.90
2017-08-28T04:31:04.771Z,14.53
2017-08-28T04:33:36.419Z,14.80
2017-08-28T04:36:07.751Z,14.20
2017-08-28T04:38:39.107Z,12.93
2017-08-28T04:41:11.022Z,13.20
2017-08-28T04:43:42.356Z,12.93
2017-08-28T04:46:13.997Z,12.10
2017-08-28T04:48:45.359Z,13.90
2017-08-28T04:51:17.341Z,13.47
2017-08-28T04:53:48.790Z,14.20
2017-08-28T04:56:20.140Z,13.93
2017-08-28T04:58:52.101Z,13.50
2017-08-28T05:01:23.524Z,12.90
2017-08-28T05:03:54.897Z,12.63
2017-08-28T05:06:26.241Z,12.37
2017-08-28T05:08:57.899Z,12.77
2017-08-28T05:11:29.469Z,13.93
2017-08-28T05:14:02.223Z,14.23
2017-08-28T05:16:34.003Z,15.30
2017-08-28T05:19:06.365Z,14.17
2017-08-28T05:21:37.929Z,15.17
2017-08-28T05:24:09.289Z,13.70
2017-08-28T05:26:41.050Z,14.67
2017-08-28T05:29:12.754Z,14.10
2017-08-28T05:31:44.082Z,14.37
2017-08-28T05:34:15.695Z,14.50
2017-08-28T05:36:47.094Z,13.67
2017-08-28T05:39:18.515Z,14.50
2017-08-28T05:41:50.126Z,15.20
2017-08-28T05:44:21.474Z,14.93
2017-08-28T05:46:52.804Z,15.87
2017-08-28T05:49:24.476Z,13.90
2017-08-28T05:51:55.822Z,13.23
2017-08-28T05:54:27.183Z,14.37
2017-08-28T05:56:58.828Z,13.87
2017-08-28T05:59:30.513Z,12.80
2017-08-28T06:02:03.631Z,12.70
2017-08-28T06:04:35.017Z,13.40
2017-08-28T06:07:07.301Z,11.33
2017-08-28T06:09:38.982Z,11.83
2017-08-28T06:12:10.323Z,10.53
2017-08-28T06:14:41.644Z,10.33
2017-08-28T06:17:13.286Z,10.63
2017-08-28T06:19:44.638Z,10.23
2017-08-28T06:22:16.230Z,11.80
2017-08-28T06:24:47.554Z,10.97
2017-08-28T06:27:18.903Z,11.50
2017-08-28T06:29:50.859Z,11.37
2017-08-28T06:32:22.156Z,9.77
2017-08-28T06:37:16.991Z,10.70
2017-08-28T06:39:48.365Z,12.10
2017-08-28T06:42:19.682Z,9.50
2017-08-28T06:44:51.249Z,9.73
2017-08-28T06:47:22.605Z,9.50
2017-08-28T06:49:54.244Z,9.70
2017-08-28T06:52:25.937Z,10.10
2017-08-28T06:54:57.449Z,11.40
2017-08-28T06:57:29.057Z,10.47
2017-08-28T07:00:00.617Z,10.03
2017-08-28T07:02:32.044Z,11.30
2017-08-28T07:05:05.355Z,11.23
2017-08-28T07:07:36.789Z,11.17
2017-08-28T07:10:08.763Z,11.20
2017-08-28T07:12:40.271Z,12.40
2017-08-28T07:15:11.812Z,11.77
2017-08-28T07:17:43.667Z,10.60
2017-08-28T07:20:15.145Z,12.50
2017-08-28T07:22:46.589Z,13.90
2017-08-28T07:25:18.273Z,13.83
2017-08-28T07:27:49.605Z,13.30
2017-08-28T07:30:21.562Z,11.67
2017-08-28T07:32:53.246Z,11.00
2017-08-28T07:35:24.611Z,10.27
2017-08-28T07:37:56.328Z,9.70
2017-08-28T07:40:27.763Z,11.20
2017-08-28T07:42:59.178Z,11.20
2017-08-28T07:45:30.579Z,9.43
2017-08-28T07:48:03.986Z,9.97
2017-08-28T07:50:35.707Z,11.20
2017-08-28T07:53:07.623Z,11.27
2017-08-28T07:55:39.153Z,10.70
2017-08-28T07:58:10.865Z,9.90
2017-08-28T08:00:42.263Z,9.77
2017-08-28T08:03:13.867Z,10.60
2017-08-28T08:05:45.231Z,10.80
2017-08-28T08:08:16.708Z,9.53
2017-08-28T08:10:48.598Z,10.43
2017-08-28T08:13:19.943Z,9.77
2017-08-28T08:15:51.630Z,10.23
2017-08-28T08:18:23.260Z,9.70
2017-08-28T08:20:54.773Z,9.00
2017-08-28T08:23:26.447Z,8.90
2017-08-28T08:25:57.870Z,11.30
2017-08-28T08:28:29.241Z,10.20
2017-08-28T08:31:02.800Z,8.70
2017-08-28T08:33:38.413Z,8.80
2017-08-28T08:36:09.718Z,9.80
2017-08-28T08:38:41.299Z,9.50
2017-08-28T08:41:12.724Z,8.77
2017-08-28T08:43:44.181Z,9.33
2017-08-28T08:46:15.501Z,9.77
2017-08-28T08:48:46.944Z,9.90
2017-08-28T08:51:18.612Z,9.20
2017-08-28T08:53:49.956Z,9.70
2017-08-28T08:56:21.281Z,9.20
2017-08-28T08:58:52.917Z,9.70
2017-08-28T09:01:24.312Z,10.67
2017-08-28T09:03:55.613Z,9.30
2017-08-28T09:06:26.904Z,9.40
2017-08-28T09:08:58.331Z,8.33
2017-08-28T09:11:29.935Z,9.00
2017-08-28T09:14:01.805Z,9.03
2017-08-28T09:16:33.655Z,8.93
2017-08-28T09:19:05.983Z,8.60
2017-08-28T09:21:37.285Z,8.97
2017-08-28T09:24:08.849Z,9.10
2017-08-28T09:26:40.123Z,9.37
2017-08-28T09:29:11.735Z,8.20
2017-08-28T09:31:43.075Z,8.60
2017-08-28T09:34:14.701Z,9.00
2017-08-28T09:36:46.051Z,8.87
2017-08-28T09:39:17.385Z,8.73
2017-08-28T09:41:50.139Z,9.20
2017-08-28T09:44:21.582Z,7.90
2017-08-28T09:46:52.976Z,8.23
2017-08-28T09:49:24.325Z,8.43
2017-08-28T09:51:56.069Z,8.93
2017-08-28T09:54:27.810Z,9.00
2017-08-28T09:56:59.291Z,8.73
2017-08-28T09:59:31.064Z,7.80
2017-08-28T10:02:03.872Z,11.63
2017-08-28T10:04:35.498Z,10.27
2017-08-28T10:07:07.431Z,9.33
2017-08-28T10:09:38.747Z,7.90
2017-08-28T10:12:10.366Z,8.47
2017-08-28T10:14:41.696Z,8.80
2017-08-28T10:17:13.021Z,8.10
2017-08-28T10:19:44.620Z,8.33
2017-08-28T10:22:15.959Z,8.00
2017-08-28T10:24:47.558Z,7.37
2017-08-28T10:27:17.925Z,8.03
2017-08-28T10:29:49.262Z,7.73
2017-08-28T10:32:20.932Z,8.23
2017-08-28T10:34:52.250Z,8.50
2017-08-28T10:37:23.562Z,8.73
2017-08-28T10:39:55.153Z,7.90
2017-08-28T10:42:26.668Z,8.13
2017-08-28T10:44:57.967Z,8.40
2017-08-28T10:47:29.639Z,8.13
2017-08-28T10:50:01.197Z,8.50
2017-08-28T10:52:33.000Z,9.10
2017-08-28T10:55:06.448Z,8.53
2017-08-28T10:57:37.779Z,7.97
2017-08-28T11:00:09.288Z,8.00
2017-08-28T11:02:40.932Z,7.17
2017-08-28T11:05:12.355Z,8.67
2017-08-28T11:07:43.808Z,7.77
2017-08-28T11:10:15.593Z,7.87
2017-08-28T11:12:47.009Z,9.70
2017-08-28T11:15:18.522Z,8.13
2017-08-28T11:17:50.176Z,8.27
2017-08-28T11:20:21.811Z,8.70
2017-08-28T11:22:53.403Z,7.90
2017-08-28T11:25:24.727Z,7.50
2017-08-28T11:27:56.119Z,7.40
2017-08-28T11:30:27.791Z,6.77
2017-08-28T11:32:59.104Z,7.40
2017-08-28T11:35:30.628Z,7.73
2017-08-28T11:38:04.514Z,7.10
2017-08-28T11:40:35.951Z,8.57
2017-08-28T11:43:07.707Z,7.63
2017-08-28T11:45:39.246Z,6.73
2017-08-28T11:48:10.554Z,7.40
2017-08-28T11:50:42.143Z,8.07
2017-08-28T11:53:13.545Z,6.20
2017-08-28T11:55:44.858Z,7.27
2017-08-28T11:58:16.492Z,7.00
2017-08-28T12:00:47.860Z,7.20
2017-08-28T12:03:19.166Z,7.17
2017-08-28T12:05:50.824Z,6.20
2017-08-28T12:08:22.146Z,7.17
2017-08-28T12:10:53.463Z,8.60
2017-08-28T12:13:25.032Z,6.60
2017-08-28T12:15:56.665Z,7.60
2017-08-28T12:18:28.359Z,6.97
2017-08-28T12:20:59.665Z,5.87
2017-08-28T12:23:30.976Z,5.80
2017-08-28T12:26:04.025Z,9.45
2017-08-28T12:28:35.416Z,9.93
2017-08-28T12:31:07.352Z,9.02
2017-08-28T12:33:38.946Z,7.68
2017-08-28T12:36:10.435Z,6.07
2017-08-28T12:38:41.990Z,6.05
2017-08-28T12:41:13.363Z,7.53
2017-08-28T12:43:44.724Z,7.00
2017-08-28T12:46:16.695Z,5.30
2017-08-28T12:48:48.006Z,4.60
2017-08-28T12:51:19.335Z,5.18
2017-08-28T12:53:51.929Z,6.00
2017-08-28T12:56:23.256Z,5.87
2017-08-28T12:58:54.608Z,5.12
2017-08-28T13:01:26.314Z,4.45
2017-08-28T13:03:57.603Z,5.10
2017-08-28T13:06:28.938Z,4.47
2017-08-28T13:09:00.618Z,3.92
2017-08-28T13:11:32.085Z,4.60
2017-08-28T13:14:05.072Z,3.85
2017-08-28T13:16:36.710Z,4.00
2017-08-28T13:19:08.633Z,4.53
2017-08-28T13:21:40.453Z,4.62
2017-08-28T13:24:11.744Z,4.05
2017-08-28T13:26:43.241Z,4.20
2017-08-28T13:29:14.848Z,4.25
2017-08-28T13:31:46.188Z,3.97
2017-08-28T13:34:17.536Z,3.83
2017-08-28T13:36:48.828Z,4.35
2017-08-28T13:39:20.284Z,3.90
2017-08-28T13:41:51.942Z,4.80
2017-08-28T13:44:23.324Z,4.00
2017-08-28T13:46:54.980Z,4.47
2017-08-28T13:52:28.325Z,4.15
2017-08-28T13:54:59.947Z,3.90
2017-08-28T13:57:31.279Z,4.57
2017-08-28T14:00:05.758Z,4.28
2017-08-28T14:02:37.367Z,4.40
2017-08-28T14:05:09.871Z,4.75
2017-08-28T14:07:45.238Z,4.05
2017-08-28T14:10:16.862Z,3.87
2017-08-28T14:12:48.181Z,4.12
2017-08-28T14:15:19.893Z,3.92
2017-08-28T14:17:51.187Z,4.18
2017-08-28T14:20:22.516Z,4.85
2017-08-28T14:22:55.143Z,3.20
2017-08-28T14:25:26.452Z,4.62
2017-08-28T14:27:57.773Z,4.00
2017-08-28T14:30:29.366Z,4.00
2017-08-28T14:33:00.814Z,4.12
2017-08-28T14:35:32.383Z,4.00
2017-08-28T14:38:05.973Z,4.30
2017-08-28T14:40:37.273Z,4.65
2017-08-28T14:43:09.193Z,4.93
2017-08-28T14:45:40.621Z,4.18
2017-08-28T14:48:12.201Z,4.10
2017-08-28T14:50:43.511Z,4.28
2017-08-28T14:53:15.188Z,4.00
2017-08-28T14:55:46.501Z,4.00
2017-08-28T14:58:17.873Z,4.62
2017-08-28T15:00:49.460Z,4.20
2017-08-28T15:03:20.775Z,4.30
2017-08-28T15:05:52.080Z,4.25
2017-08-28T15:08:23.369Z,3.80
2017-08-28T15:10:54.646Z,3.55
2017-08-28T15:13:26.240Z,3.95
2017-08-28T15:15:57.589Z,3.50
2017-08-28T15:18:28.898Z,4.37
2017-08-28T15:21:00.706Z,4.55
2017-08-28T15:23:32.037Z,4.80
2017-08-28T15:26:04.371Z,3.62
2017-08-28T15:28:35.709Z,4.72
2017-08-28T15:31:08.026Z,4.60
2017-08-28T15:33:39.764Z,3.55
2017-08-28T15:36:11.144Z,4.40
2017-08-28T15:38:42.513Z,4.32
2017-08-28T15:41:14.162Z,4.47
2017-08-28T15:43:45.482Z,4.12
2017-08-28T15:46:16.945Z,4.53
2017-08-28T15:48:48.267Z,4.40
2017-08-28T15:51:19.621Z,5.03
2017-08-28T15:53:51.267Z,4.37
2017-08-28T15:56:22.602Z,4.60
2017-08-28T15:58:54.033Z,4.22
2017-08-28T16:01:25.667Z,4.55
2017-08-28T16:03:57.019Z,5.37
2017-08-28T16:06:28.421Z,5.07
2017-08-28T16:09:00.000Z,4.55
2017-08-28T16:11:31.343Z,4.90
2017-08-28T16:14:04.835Z,4.40
2017-08-28T16:16:36.159Z,4.22
2017-08-28T16:19:08.336Z,4.97
2017-08-28T16:21:39.959Z,5.18
2017-08-28T16:24:11.326Z,4.85
2017-08-28T16:26:42.892Z,4.37
2017-08-28T16:29:14.192Z,5.05
2017-08-28T16:31:45.505Z,5.47
2017-08-28T16:34:18.115Z,6.15
2017-08-28T16:36:49.452Z,5.32
2017-08-28T16:39:20.769Z,5.47
2017-08-28T16:41:52.425Z,4.80
2017-08-28T16:44:23.759Z,6.80
2017-08-28T16:46:55.437Z,5.33
2017-08-28T16:49:26.746Z,5.00
2017-08-28T16:51:58.086Z,4.87
2017-08-28T16:54:29.707Z,5.33
2017-08-28T16:57:01.375Z,4.80
2017-08-28T16:59:33.114Z,5.73
2017-08-28T17:02:06.902Z,6.70
2017-08-28T17:04:38.219Z,5.30
2017-08-28T17:07:09.812Z,5.90
2017-08-28T17:09:46.370Z,7.17
2017-08-28T17:12:18.018Z,6.63
2017-08-28T17:14:49.387Z,6.50
2017-08-28T17:17:20.769Z,6.13
2017-08-28T17:19:52.366Z,7.73
2017-08-28T17:22:24.228Z,5.80
2017-08-28T17:24:55.577Z,5.93
2017-08-28T17:27:27.203Z,6.03
2017-08-28T17:29:58.888Z,7.87
2017-08-28T17:32:30.488Z,6.70
2017-08-28T17:35:02.114Z,7.20
2017-08-28T17:37:33.434Z,6.10
2017-08-28T17:40:07.397Z,5.80
2017-08-28T17:42:38.772Z,7.00
2017-08-28T17:45:10.953Z,7.60
2017-08-28T17:47:42.478Z,7.90
2017-08-28T17:50:13.865Z,8.47
2017-08-28T17:52:45.519Z,6.67
2017-08-28T17:55:16.859Z,8.23
2017-08-28T17:57:48.202Z,7.80
2017-08-28T18:00:20.234Z,7.90
2017-08-28T18:02:51.680Z,8.07
2017-08-28T18:05:23.305Z,9.20
2017-08-28T18:07:54.645Z,7.87
2017-08-28T18:10:26.012Z,7.40
2017-08-28T18:12:57.836Z,7.90
2017-08-28T18:15:29.249Z,9.00
2017-08-28T18:18:00.885Z,7.33
2017-08-28T18:20:32.998Z,7.97
2017-08-28T18:23:05.651Z,9.23
2017-08-28T18:25:39.117Z,8.90
2017-08-28T18:28:13.840Z,8.27
2017-08-28T18:30:45.992Z,8.53
2017-08-28T18:33:21.147Z,7.07
2017-08-28T18:35:52.882Z,9.03
2017-08-28T18:38:24.221Z,7.90
2017-08-28T18:40:55.617Z,9.63
2017-08-28T18:43:27.265Z,8.60
2017-08-28T18:45:58.981Z,9.87
2017-08-28T18:48:30.550Z,9.00
2017-08-28T18:51:02.853Z,7.50
2017-08-28T18:53:34.279Z,8.07
2017-08-28T18:56:08.510Z,8.63
2017-08-28T18:58:39.993Z,7.43
2017-08-28T19:01:11.738Z,8.93
2017-08-28T19:03:43.465Z,7.77
2017-08-28T19:06:14.867Z,8.70
2017-08-28T19:08:46.331Z,7.60
2017-08-28T19:11:18.012Z,7.90
2017-08-28T19:13:49.497Z,8.03
2017-08-28T19:16:20.952Z,7.87
2017-08-28T19:18:52.433Z,7.30
2017-08-28T19:21:23.770Z,9.70
2017-08-28T19:23:55.415Z,15.50
2017-08-28T19:26:26.727Z,8.23
2017-08-28T19:28:58.105Z,11.30
2017-08-28T19:31:30.124Z,9.60
2017-08-28T19:34:39.201Z,8.33
2017-08-28T19:37:11.040Z,8.83
2017-08-28T19:39:42.451Z,7.43
2017-08-28T19:42:13.790Z,8.03
2017-08-28T19:44:45.423Z,8.10
2017-08-28T19:47:16.779Z,7.73
2017-08-28T19:49:48.362Z,9.60
2017-08-28T19:52:21.072Z,9.43
2017-08-28T19:54:52.415Z,9.00
2017-08-28T19:57:24.035Z,7.57
2017-08-28T19:59:55.381Z,7.80
2017-08-28T20:02:31.096Z,9.40
2017-08-28T20:05:03.824Z,8.43
2017-08-28T20:07:35.434Z,7.70
2017-08-28T20:10:08.111Z,8.30
2017-08-28T20:12:39.954Z,8.27
2017-08-28T20:15:11.416Z,9.20
2017-08-28T20:17:42.757Z,7.77
2017-08-28T20:20:14.443Z,7.53
2017-08-28T20:22:45.780Z,8.73
2017-08-28T20:25:17.159Z,7.80
2017-08-28T20:27:48.944Z,8.80
2017-08-28T20:30:20.299Z,9.50
2017-08-28T20:32:52.179Z,9.00
2017-08-28T20:35:23.836Z,9.03
2017-08-28T20:37:55.232Z,8.47
2017-08-28T20:40:27.231Z,8.20
2017-08-28T20:42:58.709Z,8.70
2017-08-28T20:45:30.070Z,8.83
2017-08-28T20:48:02.642Z,8.57
2017-08-28T20:50:34.162Z,7.83
2017-08-28T20:53:06.482Z,8.27
2017-08-28T20:55:38.196Z,7.80
2017-08-28T20:58:10.521Z,8.80
2017-08-28T21:00:41.859Z,9.43
2017-08-28T21:03:13.854Z,9.30
2017-08-28T21:05:45.141Z,9.50
2017-08-28T21:08:16.631Z,7.67
2017-08-28T21:10:51.596Z,7.87
2017-08-28T21:13:26.609Z,7.80
2017-08-28T21:15:59.341Z,7.50
2017-08-28T21:18:30.813Z,8.20
2017-08-28T21:21:02.621Z,8.80
2017-08-28T21:23:34.078Z,8.20
2017-08-28T21:26:07.705Z,8.63
2017-08-28T21:28:39.417Z,8.10
2017-08-28T21:31:10.849Z,8.67
2017-08-28T21:33:42.937Z,7.97
2017-08-28T21:36:14.384Z,8.30
2017-08-28T21:38:45.728Z,8.80
2017-08-28T21:41:17.430Z,9.80
2017-08-28T21:43:48.862Z,8.73
2017-08-28T21:46:20.317Z,8.00
2017-08-28T21:48:52.093Z,8.17
2017-08-28T21:51:23.441Z,10.00
2017-08-28T21:53:55.114Z,8.30
2017-08-28T21:56:26.676Z,9.60
2017-08-28T21:58:58.041Z,8.97
2017-08-28T22:01:29.701Z,7.93
2017-08-28T22:04:02.616Z,8.73
2017-08-28T22:06:34.267Z,13.33
2017-08-28T22:09:07.286Z,12.17
2017-08-28T22:11:42.160Z,9.70
2017-08-28T22:14:13.700Z,9.90
2017-08-28T22:16:45.371Z,8.30
2017-08-28T22:19:16.728Z,9.83
2017-08-28T22:21:49.167Z,9.23
2017-08-28T22:24:20.625Z,9.07
2017-08-28T22:26:52.055Z,9.70
2017-08-28T22:29:24.547Z,9.67
2017-08-28T22:31:57.811Z,9.70
2017-08-28T22:34:31.785Z,9.50
2017-08-28T22:37:06.279Z,10.03
2017-08-28T22:39:38.081Z,11.00
2017-08-28T22:42:11.761Z,11.07
2017-08-28T22:44:43.173Z,10.13
2017-08-28T22:47:14.509Z,10.07
2017-08-28T22:49:45.932Z,10.73
2017-08-28T22:52:17.437Z,10.50
2017-08-28T22:54:49.113Z,9.80
2017-08-28T22:57:20.720Z,10.50
2017-08-28T22:59:52.297Z,9.97
2017-08-28T23:02:24.128Z,11.50
2017-08-28T23:04:55.886Z,11.00
2017-08-28T23:07:27.270Z,10.67
2017-08-28T23:09:58.621Z,11.40
2017-08-28T23:12:30.169Z,11.40
2017-08-28T23:15:02.169Z,10.83
2017-08-28T23:17:33.666Z,11.20
2017-08-28T23:20:07.321Z,10.47
2017-08-28T23:22:39.985Z,11.40
2017-08-28T23:25:11.454Z,11.20
2017-08-28T23:27:43.071Z,11.07
2017-08-28T23:30:14.455Z,10.77
2017-08-28T23:32:45.773Z,10.60
2017-08-28T23:35:17.810Z,11.10
2017-08-28T23:37:49.217Z,11.03
2017-08-28T23:40:20.876Z,11.47
2017-08-28T23:42:52.498Z,10.83
2017-08-28T23:45:24.420Z,10.43
2017-08-28T23:47:56.047Z,9.83
2017-08-28T23:50:27.695Z,10.13
2017-08-28T23:52:59.027Z,10.80
2017-08-28T23:55:30.653Z,10.67
2017-08-28T23:58:03.820Z,10.60
